createdAt,value
2022-10-15T00:00:45.074Z,100400.97
2022-10-15T00:03:36.243Z,100402.54
2022-10-15T00:06:13.391Z,100396.34
2022-10-15T00:08:40.472Z,100397.27
2022-10-15T00:11:16.066Z,100399.39
2022-10-15T00:13:45.774Z,100401.52
2022-10-15T00:16:18.971Z,100400.11
2022-10-15T00:18:49.053Z,100397.88
2022-10-15T00:21:31.168Z,100395.81
2022-10-15T00:23:58.083Z,100393.41
2022-10-15T00:26:29.642Z,100389.83
2022-10-15T00:29:11.246Z,100392.87
2022-10-15T00:31:55.010Z,100394.02
2022-10-15T00:34:21.782Z,100392.55
2022-10-15T00:36:50.065Z,100392.39
2022-10-15T00:39:29.502Z,100391.65
2022-10-15T00:42:32.022Z,100393.36
2022-10-15T00:44:59.633Z,100388.46
2022-10-15T00:47:48.839Z,100391.20
2022-10-15T00:50:21.446Z,100390.23
2022-10-15T00:53:09.134Z,100387.98
2022-10-15T00:55:44.702Z,100386.94
2022-10-15T00:58:27.635Z,100386.19
2022-10-15T01:00:55.493Z,100384.82
2022-10-15T01:03:37.646Z,100384.27
2022-10-15T01:06:15.724Z,100386.55
2022-10-15T01:09:00.124Z,100390.48
2022-10-15T01:11:56.976Z,100388.11
2022-10-15T01:22:27.405Z,100390.05
2022-10-15T01:25:39.656Z,100386.60
2022-10-15T01:29:12.328Z,100387.80
2022-10-15T01:32:07.641Z,100387.61
2022-10-15T01:34:57.517Z,100388.88
2022-10-15T01:37:50.083Z,100385.09
2022-10-15T01:40:38.487Z,100382.77
2022-10-15T01:43:48.753Z,100379.34
2022-10-15T01:47:00.740Z,100382.96
2022-10-15T01:49:42.034Z,100385.07
2022-10-15T01:52:23.241Z,100386.23
2022-10-15T01:54:51.931Z,100386.90
2022-10-15T02:02:22.050Z,100383.34
2022-10-15T02:05:14.383Z,100380.16
2022-10-15T02:08:07.569Z,100380.40
2022-10-15T02:11:01.229Z,100377.88
2022-10-15T02:13:38.516Z,100381.40
2022-10-15T02:16:31.157Z,100381.46
2022-10-15T02:19:12.602Z,100385.43
2022-10-15T02:21:52.002Z,100388.38
2022-10-15T02:24:30.752Z,100389.58
2022-10-15T02:27:08.883Z,100387.72
2022-10-15T02:29:42.098Z,100386.65
2022-10-15T02:32:11.526Z,100391.52
2022-10-15T02:34:39.402Z,100392.27
2022-10-15T02:37:11.898Z,100396.34
2022-10-15T02:39:56.248Z,100393.00
2022-10-15T02:42:24.444Z,100390.66
2022-10-15T02:44:51.464Z,100386.92
2022-10-15T02:47:18.354Z,100389.28
2022-10-15T02:49:45.052Z,100394.15
2022-10-15T02:52:11.928Z,100393.42
2022-10-15T02:54:38.912Z,100393.03
2022-10-15T02:57:08.506Z,100394.34
2022-10-15T02:59:42.058Z,100390.54
2022-10-15T03:02:15.263Z,100391.70
2022-10-15T03:04:47.091Z,100385.95
2022-10-15T03:07:14.475Z,100385.10
2022-10-15T03:09:41.234Z,100383.46
2022-10-15T03:12:08.119Z,100384.77
2022-10-15T03:14:34.842Z,100383.75
2022-10-15T03:17:01.548Z,100383.92
2022-10-15T03:19:31.633Z,100385.95
2022-10-15T03:22:05.562Z,100392.48
2022-10-15T03:24:45.485Z,100391.55
2022-10-15T03:27:12.716Z,100387.50
2022-10-15T03:29:42.807Z,100389.64
2022-10-15T03:32:20.765Z,100392.11
2022-10-15T03:35:02.971Z,100395.75
2022-10-15T03:37:30.856Z,100398.45
2022-10-15T03:40:00.136Z,100397.38
2022-10-15T03:42:29.442Z,100396.36
2022-10-15T03:44:56.840Z,100398.22
2022-10-15T03:47:23.609Z,100397.70
2022-10-15T03:49:50.455Z,100400.48
2022-10-15T03:52:17.604Z,100402.08
2022-10-15T03:54:45.608Z,100400.20
2022-10-15T03:57:18.464Z,100404.23
2022-10-15T03:59:58.647Z,100405.68
2022-10-15T04:02:27.314Z,100407.50
2022-10-15T04:04:58.492Z,100407.42
2022-10-15T04:07:25.956Z,100409.67
2022-10-15T04:09:55.249Z,100413.16
2022-10-15T04:12:35.117Z,100412.80
2022-10-15T04:15:20.326Z,100412.90
2022-10-15T04:18:07.827Z,100412.20
2022-10-15T04:20:40.244Z,100409.15
2022-10-15T04:23:22.679Z,100404.49
2022-10-15T04:26:36.893Z,100405.42
2022-10-15T04:29:15.594Z,100409.34
2022-10-15T04:32:02.926Z,100414.61
2022-10-15T04:34:48.127Z,100414.98
2022-10-15T04:37:20.777Z,100417.63
2022-10-15T04:40:11.149Z,100419.52
2022-10-15T04:42:42.294Z,100423.02
2022-10-15T04:45:13.616Z,100422.97
2022-10-15T04:47:52.358Z,100429.23
2022-10-15T04:50:30.906Z,100431.98
2022-10-15T04:53:16.278Z,100428.64
2022-10-15T04:55:58.109Z,100432.83
2022-10-15T04:58:48.596Z,100431.95
2022-10-15T05:01:26.590Z,100432.21
2022-10-15T05:04:13.505Z,100433.49
2022-10-15T05:06:40.847Z,100436.11
2022-10-15T05:09:20.746Z,100436.29
2022-10-15T05:12:12.354Z,100434.80
2022-10-15T05:14:43.414Z,100437.16
2022-10-15T05:17:24.893Z,100442.17
2022-10-15T05:19:56.818Z,100444.66
2022-10-15T05:22:31.247Z,100444.13
2022-10-15T05:24:59.516Z,100445.06
2022-10-15T05:27:31.485Z,100443.41
2022-10-15T05:30:15.039Z,100439.85
2022-10-15T05:32:53.365Z,100441.11
2022-10-15T05:35:21.547Z,100442.84
2022-10-15T05:37:53.474Z,100447.35
2022-10-15T05:40:24.925Z,100446.45
2022-10-15T05:43:07.359Z,100445.10
2022-10-15T05:45:36.336Z,100443.26
2022-10-15T05:48:07.116Z,100441.56
2022-10-15T05:50:34.515Z,100443.50
2022-10-15T05:53:07.150Z,100444.17
2022-10-15T05:56:01.695Z,100448.08
2022-10-15T05:58:37.421Z,100449.69
2022-10-15T06:01:10.890Z,100453.85
2022-10-15T06:03:54.917Z,100453.42
2022-10-15T06:06:29.187Z,100457.05
2022-10-15T06:09:27.466Z,100459.00
2022-10-15T06:12:14.870Z,100456.50
2022-10-15T06:14:44.506Z,100457.31
2022-10-15T06:17:14.440Z,100454.72
2022-10-15T06:19:44.951Z,100454.14
2022-10-15T06:28:22.579Z,100457.48
2022-10-15T06:31:10.533Z,100458.73
2022-10-15T06:33:44.905Z,100456.69
2022-10-15T06:36:39.226Z,100458.90
2022-10-15T06:39:14.274Z,100462.30
2022-10-15T06:41:44.869Z,100466.41
2022-10-15T06:44:11.839Z,100469.07
2022-10-15T06:47:44.726Z,100469.59
2022-10-15T06:50:33.739Z,100475.83
2022-10-15T06:57:33.416Z,100474.91
2022-10-15T07:00:10.731Z,100482.31
2022-10-15T07:03:02.650Z,100483.05
2022-10-15T07:20:57.192Z,100498.61
2022-10-15T07:23:28.068Z,100501.50
2022-10-15T07:26:00.412Z,100502.76
2022-10-15T07:29:05.273Z,100506.11
2022-10-15T07:33:23.383Z,100505.08
2022-10-15T07:34:42.207Z,100500.23
2022-10-15T07:37:09.155Z,100498.84
2022-10-15T07:39:40.959Z,100500.02
2022-10-15T07:42:26.629Z,100500.70
2022-10-15T07:44:53.345Z,100500.57
2022-10-15T07:47:19.983Z,100502.77
2022-10-15T07:49:46.624Z,100500.84
2022-10-15T07:52:13.419Z,100502.23
2022-10-15T07:54:39.972Z,100505.54
2022-10-15T07:57:08.782Z,100507.27
2022-10-15T07:59:48.345Z,100512.02
2022-10-15T08:02:34.466Z,100508.00
2022-10-15T08:05:01.533Z,100511.00
2022-10-15T08:07:28.328Z,100509.49
2022-10-15T08:09:55.002Z,100510.21
2022-10-15T08:12:43.692Z,100511.17
2022-10-15T08:15:35.527Z,100510.66
2022-10-15T08:18:05.285Z,100508.13
2022-10-15T08:20:32.389Z,100509.89
2022-10-15T08:22:59.529Z,100509.22
2022-10-15T08:25:33.569Z,100508.23
2022-10-15T08:30:50.552Z,100512.64
2022-10-15T08:33:19.975Z,100514.73
2022-10-15T08:36:04.432Z,100515.13
2022-10-15T08:39:03.759Z,100516.17
2022-10-15T08:42:18.118Z,100516.39
2022-10-15T08:45:33.065Z,100518.42
2022-10-15T08:48:15.739Z,100515.94
2022-10-15T08:54:52.657Z,100514.70
2022-10-15T08:58:31.507Z,100518.70
2022-10-15T09:01:43.353Z,100523.67
2022-10-15T09:05:26.566Z,100524.38
2022-10-15T09:10:57.735Z,100529.57
2022-10-15T09:12:47.138Z,100526.52
2022-10-15T09:19:11.529Z,100519.07
2022-10-15T09:26:30.579Z,100516.75
2022-10-15T09:29:23.445Z,100520.53
2022-10-15T09:34:07.972Z,100521.17
2022-10-15T09:36:12.606Z,100518.75
2022-10-15T09:42:35.507Z,100515.89
2022-10-15T09:45:27.613Z,100513.74
2022-10-15T09:48:14.508Z,100517.17
2022-10-15T09:51:10.860Z,100516.57
2022-10-15T09:54:07.976Z,100514.92
2022-10-15T09:56:54.827Z,100514.09
2022-10-15T09:59:42.450Z,100514.17
2022-10-15T10:03:27.841Z,100512.48
2022-10-15T10:06:27.467Z,100508.77
2022-10-15T10:09:25.214Z,100509.41
2022-10-15T10:12:08.122Z,100507.98
2022-10-15T10:14:46.746Z,100501.11
2022-10-15T10:17:30.806Z,100495.66
2022-10-15T10:20:26.260Z,100490.55
2022-10-15T10:23:09.048Z,100488.08
2022-10-15T10:25:45.903Z,100485.10
2022-10-15T10:28:32.063Z,100486.89
2022-10-15T10:31:58.108Z,100488.59
2022-10-15T10:38:02.494Z,100481.46
2022-10-15T10:40:43.302Z,100479.21
2022-10-15T10:43:35.400Z,100474.52
2022-10-15T10:47:20.855Z,100472.90
2022-10-15T10:50:09.308Z,100476.58
2022-10-15T10:56:42.625Z,100477.57
2022-10-15T11:00:25.125Z,100480.63
2022-10-15T11:06:46.099Z,100472.12
2022-10-15T11:16:44.691Z,100466.69
2022-10-15T11:23:37.970Z,100458.00
2022-10-15T11:27:10.524Z,100457.77
2022-10-15T11:30:04.142Z,100452.29
2022-10-15T11:33:09.368Z,100448.63
2022-10-15T11:40:18.620Z,100444.04
2022-10-15T11:43:51.641Z,100445.71
2022-10-15T11:51:54.676Z,100440.34
2022-10-15T11:54:53.191Z,100439.31
2022-10-15T12:02:18.356Z,100434.84
2022-10-15T12:11:25.996Z,100429.45
2022-10-15T12:12:29.917Z,100423.77
2022-10-15T12:15:15.847Z,100425.25
2022-10-15T12:17:57.050Z,100426.73
2022-10-15T12:24:34.742Z,100422.85
2022-10-15T12:31:58.466Z,100412.08
2022-10-15T12:34:44.004Z,100417.86
2022-10-15T12:37:49.102Z,100416.73
2022-10-15T12:40:23.237Z,100417.55
2022-10-15T12:43:14.367Z,100411.92
2022-10-15T12:46:06.870Z,100410.71
2022-10-15T12:49:04.529Z,100415.05
2022-10-15T12:54:53.802Z,100407.14
2022-10-15T12:58:05.829Z,100405.61
2022-10-15T13:07:36.632Z,100404.22
2022-10-15T13:14:01.105Z,100406.02
2022-10-15T13:19:16.773Z,100396.52
2022-10-15T13:22:07.985Z,100395.16
2022-10-15T13:25:28.580Z,100389.30
2022-10-15T13:28:32.383Z,100388.75
2022-10-15T13:31:46.963Z,100385.50
2022-10-15T13:35:13.332Z,100387.64
2022-10-15T13:38:37.471Z,100388.84
2022-10-15T13:41:13.291Z,100387.17
2022-10-15T13:44:18.630Z,100387.72
2022-10-15T13:48:30.513Z,100383.92
2022-10-15T13:51:34.352Z,100385.27
2022-10-15T13:55:06.523Z,100387.36
2022-10-15T14:01:12.923Z,100390.19
2022-10-15T14:02:55.704Z,100388.55
2022-10-15T14:04:55.215Z,100394.02
2022-10-15T14:09:04.750Z,100388.61
2022-10-15T14:14:59.906Z,100388.57
2022-10-15T14:19:35.239Z,100385.39
2022-10-15T14:22:33.124Z,100375.13
2022-10-15T14:29:13.623Z,100375.10
2022-10-15T14:32:14.576Z,100374.27
2022-10-15T14:32:44.366Z,100370.61
2022-10-15T14:35:42.521Z,100372.45
2022-10-15T14:38:33.826Z,100373.69
2022-10-15T14:41:47.461Z,100371.34
2022-10-15T14:44:49.401Z,100370.20
2022-10-15T14:47:27.085Z,100377.87
2022-10-15T14:50:25.112Z,100382.58
2022-10-15T14:57:41.623Z,100383.11
2022-10-15T15:00:12.984Z,100380.85
2022-10-15T15:03:34.050Z,100376.98
2022-10-15T15:06:36.784Z,100376.40
2022-10-15T15:10:09.713Z,100377.70
2022-10-15T15:13:40.182Z,100379.39
2022-10-15T15:19:55.966Z,100382.19
2022-10-15T15:23:38.593Z,100386.01
2022-10-15T15:26:47.143Z,100391.52
2022-10-15T15:28:54.522Z,100392.63
2022-10-15T15:31:25.318Z,100395.95
2022-10-15T15:33:52.263Z,100397.59
2022-10-15T15:36:20.964Z,100397.38
2022-10-15T15:38:50.999Z,100397.39
2022-10-15T15:41:19.824Z,100400.30
2022-10-15T15:44:10.830Z,100397.71
2022-10-15T15:46:40.420Z,100398.70
2022-10-15T15:49:10.144Z,100404.16
2022-10-15T15:51:37.067Z,100405.86
2022-10-15T15:54:07.155Z,100405.95
2022-10-15T15:56:34.415Z,100409.41
2022-10-15T15:59:01.089Z,100408.36
2022-10-15T16:01:43.164Z,100407.80
2022-10-15T16:04:13.031Z,100406.46
2022-10-15T16:06:43.690Z,100406.15
2022-10-15T16:09:14.985Z,100408.88
2022-10-15T16:11:49.836Z,100414.62
2022-10-15T16:14:16.799Z,100418.70
2022-10-15T16:16:50.862Z,100426.84
2022-10-15T16:19:28.048Z,100430.56
2022-10-15T16:21:55.094Z,100431.22
2022-10-15T16:24:22.096Z,100433.29
2022-10-15T16:26:48.891Z,100435.49
2022-10-15T16:29:16.481Z,100432.31
2022-10-15T16:31:43.565Z,100435.65
2022-10-15T16:34:23.880Z,100438.51
2022-10-15T16:36:59.680Z,100443.51
2022-10-15T16:39:30.263Z,100445.00
2022-10-15T16:42:03.165Z,100442.11
2022-10-15T16:44:35.844Z,100447.35
2022-10-15T16:47:02.823Z,100453.31
2022-10-15T16:49:43.844Z,100452.23
2022-10-15T16:52:16.317Z,100447.86
2022-10-15T16:54:49.796Z,100450.88
2022-10-15T16:57:29.010Z,100450.36
2022-10-15T17:02:58.496Z,100450.17
2022-10-15T17:05:50.456Z,100452.08
2022-10-15T17:08:34.851Z,100457.40
2022-10-15T17:11:13.737Z,100459.31
2022-10-15T17:13:42.778Z,100461.78
2022-10-15T17:16:15.249Z,100463.77
2022-10-15T17:18:43.562Z,100468.52
2022-10-15T17:21:12.425Z,100466.81
2022-10-15T17:23:39.241Z,100462.10
2022-10-15T17:26:08.503Z,100456.44
2022-10-15T17:28:35.623Z,100460.33
2022-10-15T17:31:12.024Z,100464.38
2022-10-15T17:34:10.120Z,100469.12
2022-10-15T17:37:00.038Z,100471.16
2022-10-15T17:39:30.578Z,100472.34
2022-10-15T17:42:01.696Z,100473.14
2022-10-15T17:44:28.621Z,100474.31
2022-10-15T17:46:55.291Z,100476.13
2022-10-15T17:49:27.959Z,100478.66
2022-10-15T17:51:54.561Z,100480.89
2022-10-15T17:54:29.553Z,100482.71
2022-10-15T17:56:59.014Z,100480.45
2022-10-15T17:59:28.201Z,100482.04
2022-10-15T18:01:59.620Z,100485.77
2022-10-15T18:04:56.013Z,100482.48
2022-10-15T18:07:26.202Z,100485.50
2022-10-15T18:10:20.146Z,100486.45
2022-10-15T18:12:46.832Z,100486.85
2022-10-15T18:15:13.628Z,100487.80
2022-10-15T18:17:43.216Z,100486.85
2022-10-15T18:20:13.075Z,100488.36
2022-10-15T18:22:39.940Z,100491.85
2022-10-15T18:25:06.872Z,100493.66
2022-10-15T18:27:37.043Z,100499.46
2022-10-15T18:30:06.659Z,100503.34
2022-10-15T18:35:01.365Z,100504.00
2022-10-15T18:37:28.290Z,100510.91
2022-10-15T18:39:55.279Z,100512.32
2022-10-15T18:42:29.681Z,100518.02
2022-10-15T18:44:56.751Z,100522.81
2022-10-15T18:47:59.027Z,100523.46
2022-10-15T18:51:12.408Z,100521.80
2022-10-15T18:53:39.592Z,100530.21
2022-10-15T18:56:13.963Z,100533.27
2022-10-15T19:01:43.353Z,100527.66
2022-10-15T19:04:15.886Z,100526.74
2022-10-15T19:06:45.650Z,100523.77
2022-10-15T19:09:31.735Z,100524.35
2022-10-15T19:12:10.352Z,100524.76
2022-10-15T19:14:37.165Z,100531.94
2022-10-15T19:17:06.784Z,100534.57
2022-10-15T19:19:33.457Z,100536.55
2022-10-15T19:22:05.585Z,100536.17
2022-10-15T19:24:32.434Z,100539.84
2022-10-15T19:26:59.079Z,100546.35
2022-10-15T19:29:39.127Z,100549.29
2022-10-15T19:32:08.160Z,100552.81
2022-10-15T19:34:39.513Z,100548.38
2022-10-15T19:37:08.558Z,100548.21
2022-10-15T19:40:14.004Z,100547.84
2022-10-15T19:42:40.796Z,100552.86
2022-10-15T19:45:08.409Z,100550.35
2022-10-15T19:47:35.334Z,100552.50
2022-10-15T19:50:03.327Z,100557.61
2022-10-15T19:52:35.513Z,100561.45
2022-10-15T19:55:15.611Z,100565.20
2022-10-15T19:58:12.923Z,100564.89
2022-10-15T20:00:49.692Z,100571.86
2022-10-15T20:07:07.336Z,100572.84
2022-10-15T20:17:11.568Z,100574.92
2022-10-15T20:20:37.869Z,100582.02
2022-10-15T20:23:35.905Z,100588.94
2022-10-15T20:26:46.783Z,100592.58
2022-10-15T20:29:16.808Z,100595.14
2022-10-15T20:32:10.870Z,100594.36
2022-10-15T20:35:55.025Z,100595.14
2022-10-15T20:38:29.857Z,100598.42
2022-10-15T20:41:25.337Z,100603.33
2022-10-15T20:47:33.006Z,100601.93
2022-10-15T20:47:48.599Z,100605.55
2022-10-15T20:50:19.476Z,100607.55
2022-10-15T20:53:01.958Z,100607.19
2022-10-15T20:55:28.883Z,100606.36
2022-10-15T20:57:56.029Z,100602.61
2022-10-15T21:00:22.953Z,100604.41
2022-10-15T21:02:50.810Z,100605.55
2022-10-15T21:05:21.099Z,100609.33
2022-10-15T21:08:15.898Z,100615.61
2022-10-15T21:11:12.437Z,100620.30
2022-10-15T21:13:47.645Z,100621.91
2022-10-15T21:16:16.155Z,100623.13
2022-10-15T21:18:43.056Z,100623.57
2022-10-15T21:21:32.162Z,100629.09
2022-10-15T21:28:30.985Z,100639.94
2022-10-15T21:31:46.169Z,100643.91
2022-10-15T21:38:35.020Z,100647.61
2022-10-15T21:39:12.213Z,100649.44
2022-10-15T21:44:53.035Z,100633.86
2022-10-15T21:47:22.417Z,100636.21
2022-10-15T21:50:06.451Z,100635.95
2022-10-15T21:52:46.204Z,100631.48
2022-10-15T21:55:25.952Z,100637.14
2022-10-15T21:57:58.878Z,100639.94
2022-10-15T22:00:33.758Z,100642.49
2022-10-15T22:03:04.109Z,100646.16
2022-10-15T22:08:58.496Z,100642.93
2022-10-15T22:11:32.940Z,100640.96
2022-10-15T22:14:03.256Z,100641.40
2022-10-15T22:16:32.921Z,100644.04
2022-10-15T22:18:59.563Z,100650.53
2022-10-15T22:21:29.267Z,100654.95
2022-10-15T22:24:01.685Z,100654.17
2022-10-15T22:26:31.418Z,100662.78
2022-10-15T22:32:27.840Z,100667.23
2022-10-15T22:35:21.058Z,100669.76
2022-10-15T22:38:04.394Z,100669.09
2022-10-15T22:40:53.797Z,100672.75
2022-10-15T22:43:56.479Z,100672.55
2022-10-15T22:46:34.878Z,100680.91
2022-10-15T22:52:05.093Z,100686.16
2022-10-15T22:54:56.628Z,100689.18
2022-10-15T22:57:24.688Z,100698.30
2022-10-15T23:02:47.219Z,100698.14
2022-10-15T23:04:09.318Z,100702.56
2022-10-15T23:10:59.760Z,100705.96
2022-10-15T23:30:38.090Z,100715.66
2022-10-15T23:32:52.197Z,100718.61
2022-10-15T23:35:26.950Z,100714.27
2022-10-15T23:39:14.852Z,100716.10
2022-10-15T23:41:58.607Z,100719.91
2022-10-15T23:44:40.452Z,100722.75
2022-10-15T23:48:07.043Z,100728.11
2022-10-15T23:51:00.905Z,100725.67
2022-10-15T23:53:32.360Z,100726.41
2022-10-15T23:56:09.646Z,100723.67
2022-10-15T23:58:51.149Z,100724.74
